Time,TemperatureF,DewpointF,PressureIn,WindDirection,WindDirectionDegrees,WindSpeedMPH,WindSpeedGustMPH,Humidity,HourlyPrecipIn,Conditions,Clouds,dailyrainin,SoftwareType,DateUTC
2013-01-25 00:00:00,14.9,-0.8,30.21,NNW,344,4.0,5.0,49,0.00,,,0.00,LWC V2.10 B1702,2013-01-25 05:00:00,
2013-01-25 00:01:00,14.9,-0.8,30.21,WNW,291,4.0,8.0,49,0.00,,,0.00,LWC V2.10 B1702,2013-01-25 05:01:00,
2013-01-25 00:06:00,14.8,-1.3,30.21,NW,315,9.0,9.0,48,0.00,,,0.00,LWC V2.10 B1702,2013-01-25 05:06:00,
2013-01-25 00:11:00,14.8,-0.9,30.21,NNW,338,6.0,10.0,49,0.00,,,0.00,LWC V2.10 B1702,2013-01-25 05:11:00,
2013-01-25 00:16:00,14.7,-0.5,30.21,WNW,298,4.0,6.0,50,0.00,,,0.00,LWC V2.10 B1702,2013-01-25 05:16:00,
2013-01-25 00:21:00,14.6,-1.0,30.21,NW,311,4.0,6.0,49,0.00,,,0.00,LWC V2.10 B1702,2013-01-25 05:21:00,
2013-01-25 00:26:00,14.5,-1.6,30.21,NW,305,8.0,8.0,48,0.00,,,0.00,LWC V2.10 B1702,2013-01-25 05:26:00,
2013-01-25 00:31:00,14.5,-1.6,30.21,WNW,286,8.0,14.0,48,0.00,,,0.00,LWC V2.10 B1702,2013-01-25 05:31:00,
2013-01-25 00:36:00,14.5,-1.6,30.21,WNW,298,5.0,10.0,48,0.00,,,0.00,LWC V2.10 B1702,2013-01-25 05:36:00,
2013-01-25 00:41:00,14.4,-2.1,30.22,WNW,302,4.0,6.0,47,0.00,,,0.00,LWC V2.10 B1702,2013-01-25 05:41:00,
2013-01-25 00:46:00,14.4,-1.7,30.22,North,11,7.0,7.0,48,0.00,,,0.00,LWC V2.10 B1702,2013-01-25 05:46:00,
2013-01-25 00:51:00,14.4,-1.2,30.22,WNW,290,8.0,10.0,49,0.00,,,0.00,LWC V2.10 B1702,2013-01-25 05:51:00,
2013-01-25 00:56:00,14.4,-1.2,30.22,WNW,300,8.0,10.0,49,0.00,,,0.00,LWC V2.10 B1702,2013-01-25 05:56:00,
2013-01-25 01:01:00,14.3,-1.8,30.22,NW,308,10.0,14.0,48,0.00,,,0.00,LWC V2.10 B1702,2013-01-25 06:01:00,
2013-01-25 01:06:00,14.3,-1.3,30.23,NW,322,2.0,5.0,49,0.00,,,0.00,LWC V2.10 B1702,2013-01-25 06:06:00,
2013-01-25 01:11:00,14.3,-0.9,30.23,West,269,5.0,8.0,50,0.00,,,0.00,LWC V2.10 B1702,2013-01-25 06:11:00,
2013-01-25 01:16:00,14.2,-1.4,30.24,NW,308,3.0,11.0,49,0.00,,,0.00,LWC V2.10 B1702,2013-01-25 06:16:00,
2013-01-25 01:21:00,14.2,-1.0,30.24,NNW,333,7.0,11.0,50,0.00,,,0.00,LWC V2.10 B1702,2013-01-25 06:21:00,
2013-01-25 01:26:00,14.2,-1.0,30.24,West,269,3.0,8.0,50,0.00,,,0.00,LWC V2.10 B1702,2013-01-25 06:26:00,
2013-01-25 01:31:00,14.1,-1.9,30.25,WNW,297,2.0,5.0,48,0.00,,,0.00,LWC V2.10 B1702,2013-01-25 06:31:00,
2013-01-25 01:36:00,14.0,-2.0,30.25,WNW,296,1.0,6.0,48,0.00,,,0.00,LWC V2.10 B1702,2013-01-25 06:36:00,
2013-01-25 01:41:00,14.1,-2.4,30.24,NW,310,3.0,6.0,47,0.00,,,0.00,LWC V2.10 B1702,2013-01-25 06:41:00,
2013-01-25 01:46:00,14.0,-2.0,30.25,WNW,290,7.0,12.0,48,0.00,,,0.00,LWC V2.10 B1702,2013-01-25 06:46:00,
2013-01-25 01:51:00,14.0,-2.5,30.25,NW,306,3.0,8.0,47,0.00,,,0.00,LWC V2.10 B1702,2013-01-25 06:51:00,
2013-01-25 01:56:00,13.9,-2.6,30.25,NNW,348,8.0,11.0,47,0.00,,,0.00,LWC V2.10 B1702,2013-01-25 06:56:00,
2013-01-25 02:01:00,13.9,-2.1,30.24,NW,306,2.0,10.0,48,0.00,,,0.00,LWC V2.10 B1702,2013-01-25 07:01:00,
2013-01-25 02:06:00,13.8,-2.2,30.25,North,355,3.0,3.0,48,0.00,,,0.00,LWC V2.10 B1702,2013-01-25 07:06:00,
2013-01-25 02:11:00,13.7,-1.9,30.25,NNW,344,1.0,6.0,49,0.00,,,0.00,LWC V2.10 B1702,2013-01-25 07:11:00,
2013-01-25 02:16:00,13.6,-2.4,30.25,NNW,344,3.0,8.0,48,0.00,,,0.00,LWC V2.10 B1702,2013-01-25 07:16:00,
2013-01-25 02:21:00,13.6,-2.8,30.25,WNW,300,4.0,13.0,47,0.00,,,0.00,LWC V2.10 B1702,2013-01-25 07:21:00,
2013-01-25 02:26:00,13.6,-3.3,30.25,NNW,327,1.0,7.0,46,0.00,,,0.00,LWC V2.10 B1702,2013-01-25 07:26:00,
2013-01-25 02:31:00,13.6,-2.0,30.26,NW,304,0.0,3.0,49,0.00,,,0.00,LWC V2.10 B1702,2013-01-25 07:31:00,
2013-01-25 02:36:00,13.5,-2.1,30.26,WNW,300,2.0,7.0,49,0.00,,,0.00,LWC V2.10 B1702,2013-01-25 07:36:00,
2013-01-25 02:41:00,13.5,-2.1,30.27,NNW,338,1.0,6.0,49,0.00,,,0.00,LWC V2.10 B1702,2013-01-25 07:41:00,
2013-01-25 02:46:00,13.4,-1.7,30.25,WNW,288,4.0,9.0,50,0.00,,,0.00,LWC V2.10 B1702,2013-01-25 07:46:00,
2013-01-25 02:51:00,13.4,-2.2,30.26,SW,227,4.0,5.0,49,0.00,,,0.00,LWC V2.10 B1702,2013-01-25 07:51:00,
2013-01-25 02:56:00,13.3,-1.8,30.26,WNW,290,9.0,9.0,50,0.00,,,0.00,LWC V2.10 B1702,2013-01-25 07:56:00,
2013-01-25 03:01:00,13.3,-2.2,30.25,NW,320,12.0,12.0,49,0.00,,,0.00,LWC V2.10 B1702,2013-01-25 08:01:00,
2013-01-25 03:06:00,13.3,-2.2,30.26,NW,319,5.0,7.0,49,0.00,,,0.00,LWC V2.10 B1702,2013-01-25 08:06:00,
2013-01-25 03:11:00,13.2,-1.9,30.25,West,271,2.0,11.0,50,0.00,,,0.00,LWC V2.10 B1702,2013-01-25 08:11:00,
2013-01-25 03:16:00,13.2,-1.9,30.26,NW,320,6.0,12.0,50,0.00,,,0.00,LWC V2.10 B1702,2013-01-25 08:16:00,
2013-01-25 03:21:00,13.2,-1.9,30.26,West,275,3.0,8.0,50,0.00,,,0.00,LWC V2.10 B1702,2013-01-25 08:21:00,
2013-01-25 03:26:00,13.1,-1.2,30.26,NNE,30,4.0,8.0,52,0.00,,,0.00,LWC V2.10 B1702,2013-01-25 08:26:00,
2013-01-25 03:31:00,13.1,-1.2,30.25,WNW,289,3.0,9.0,52,0.00,,,0.00,LWC V2.10 B1702,2013-01-25 08:31:00,
2013-01-25 03:36:00,13.0,-2.5,30.25,NNW,336,6.0,11.0,49,0.00,,,0.00,LWC V2.10 B1702,2013-01-25 08:36:00,
2013-01-25 03:42:00,13.1,-1.6,30.25,NNW,340,6.0,11.0,51,0.00,,,0.00,LWC V2.10 B1702,2013-01-25 08:42:00,
2013-01-25 03:47:00,13.0,-2.5,30.25,NW,306,2.0,5.0,49,0.00,,,0.00,LWC V2.10 B1702,2013-01-25 08:47:00,
2013-01-25 03:52:00,13.1,-1.2,30.25,NW,311,4.0,7.0,52,0.00,,,0.00,LWC V2.10 B1702,2013-01-25 08:52:00,
2013-01-25 03:57:00,13.1,-1.2,30.26,NNW,340,1.0,11.0,52,0.00,,,0.00,LWC V2.10 B1702,2013-01-25 08:57:00,
2013-01-25 04:02:00,13.0,-2.1,30.26,North,355,8.0,10.0,50,0.00,,,0.00,LWC V2.10 B1702,2013-01-25 09:02:00,
2013-01-25 04:07:00,13.0,-2.1,30.26,NNW,344,8.0,11.0,50,0.00,,,0.00,LWC V2.10 B1702,2013-01-25 09:07:00,
2013-01-25 04:12:00,13.0,-1.7,30.27,WNW,287,5.0,9.0,51,0.00,,,0.00,LWC V2.10 B1702,2013-01-25 09:12:00,
2013-01-25 04:17:00,13.0,-1.3,30.27,West,273,2.0,9.0,52,0.00,,,0.00,LWC V2.10 B1702,2013-01-25 09:17:00,
2013-01-25 04:22:00,13.0,-1.3,30.27,NNW,341,5.0,7.0,52,0.00,,,0.00,LWC V2.10 B1702,2013-01-25 09:22:00,
2013-01-25 04:27:00,13.0,-1.7,30.27,WNW,299,3.0,8.0,51,0.00,,,0.00,LWC V2.10 B1702,2013-01-25 09:27:00,
2013-01-25 04:32:00,12.9,-1.8,30.26,WNW,286,2.0,5.0,51,0.00,,,0.00,LWC V2.10 B1702,2013-01-25 09:32:00,
2013-01-25 04:37:00,12.9,-2.2,30.27,NNW,346,8.0,12.0,50,0.00,,,0.00,LWC V2.10 B1702,2013-01-25 09:37:00,
2013-01-25 04:42:00,12.8,-1.9,30.27,NNW,329,6.0,8.0,51,0.00,,,0.00,LWC V2.10 B1702,2013-01-25 09:42:00,
2013-01-25 04:47:00,12.8,-2.3,30.27,NW,323,3.0,8.0,50,0.00,,,0.00,LWC V2.10 B1702,2013-01-25 09:47:00,
2013-01-25 04:52:00,12.8,-1.5,30.27,NW,311,6.0,9.0,52,0.00,,,0.00,LWC V2.10 B1702,2013-01-25 09:52:00,
2013-01-25 04:57:00,12.9,-1.4,30.27,NW,317,8.0,8.0,52,0.00,,,0.00,LWC V2.10 B1702,2013-01-25 09:57:00,
2013-01-25 05:02:00,12.9,-1.4,30.26,NNW,347,11.0,11.0,52,0.00,,,0.00,LWC V2.10 B1702,2013-01-25 10:02:00,
2013-01-25 05:07:00,12.9,-1.4,30.27,WNW,297,3.0,9.0,52,0.00,,,0.00,LWC V2.10 B1702,2013-01-25 10:07:00,
2013-01-25 05:12:00,12.9,-1.8,30.27,NNW,346,5.0,11.0,51,0.00,,,0.00,LWC V2.10 B1702,2013-01-25 10:12:00,
2013-01-25 05:17:00,12.8,-1.9,30.27,NNW,333,4.0,7.0,51,0.00,,,0.00,LWC V2.10 B1702,2013-01-25 10:17:00,
2013-01-25 05:22:00,12.8,-1.9,30.27,NNW,345,6.0,9.0,51,0.00,,,0.00,LWC V2.10 B1702,2013-01-25 10:22:00,
2013-01-25 05:27:00,12.8,-1.9,30.27,WNW,290,4.0,11.0,51,0.00,,,0.00,LWC V2.10 B1702,2013-01-25 10:27:00,
2013-01-25 05:32:00,12.8,-1.9,30.27,NW,312,5.0,10.0,51,0.00,,,0.00,LWC V2.10 B1702,2013-01-25 10:32:00,
2013-01-25 05:37:00,12.8,-1.9,30.28,NW,325,3.0,10.0,51,0.00,,,0.00,LWC V2.10 B1702,2013-01-25 10:37:00,
2013-01-25 05:42:00,12.8,-1.9,30.28,NW,309,1.0,8.0,51,0.00,,,0.00,LWC V2.10 B1702,2013-01-25 10:42:00,
2013-01-25 05:47:00,12.8,-1.5,30.28,NNW,329,7.0,9.0,52,0.00,,,0.00,LWC V2.10 B1702,2013-01-25 10:47:00,
2013-01-25 05:52:00,12.9,-1.8,30.28,NW,309,4.0,11.0,51,0.00,,,0.00,LWC V2.10 B1702,2013-01-25 10:52:00,
2013-01-25 05:57:00,13.0,-1.3,30.28,WNW,302,3.0,8.0,52,0.00,,,0.00,LWC V2.10 B1702,2013-01-25 10:57:00,
2013-01-25 06:02:00,13.0,-1.7,30.28,NW,306,5.0,9.0,51,0.00,,,0.00,LWC V2.10 B1702,2013-01-25 11:02:00,
2013-01-25 06:07:00,12.9,-1.8,30.28,NW,325,2.0,6.0,51,0.00,,,0.00,LWC V2.10 B1702,2013-01-25 11:07:00,
2013-01-25 06:12:00,12.8,-1.5,30.27,WNW,298,1.0,7.0,52,0.00,,,0.00,LWC V2.10 B1702,2013-01-25 11:12:00,
2013-01-25 06:17:00,12.7,-1.6,30.27,NNW,343,1.0,4.0,52,0.00,,,0.00,LWC V2.10 B1702,2013-01-25 11:17:00,
2013-01-25 06:22:00,12.7,-1.6,30.27,NNW,346,8.0,8.0,52,0.00,,,0.00,LWC V2.10 B1702,2013-01-25 11:22:00,
2013-01-25 06:27:00,12.7,-1.2,30.27,NNW,339,8.0,8.0,53,0.00,,,0.00,LWC V2.10 B1702,2013-01-25 11:27:00,
2013-01-25 06:32:00,12.7,-2.0,30.27,NW,317,5.0,6.0,51,0.00,,,0.00,LWC V2.10 B1702,2013-01-25 11:32:00,
2013-01-25 06:37:00,12.6,-1.6,30.26,WNW,286,3.0,4.0,52,0.00,,,0.00,LWC V2.10 B1702,2013-01-25 11:37:00,
2013-01-25 06:42:00,12.6,-1.6,30.27,NNW,341,5.0,7.0,52,0.00,,,0.00,LWC V2.10 B1702,2013-01-25 11:42:00,
2013-01-25 06:47:00,12.7,-1.2,30.26,NNW,336,1.0,7.0,53,0.00,,,0.00,LWC V2.10 B1702,2013-01-25 11:47:00,
2013-01-25 06:52:00,12.6,-1.2,30.27,NNW,344,5.0,10.0,53,0.00,,,0.00,LWC V2.10 B1702,2013-01-25 11:52:00,
2013-01-25 06:57:00,12.6,-1.2,30.28,NNW,345,2.0,5.0,53,0.00,,,0.00,LWC V2.10 B1702,2013-01-25 11:57:00,
2013-01-25 07:02:00,12.7,-1.6,30.28,North,355,7.0,10.0,52,0.00,,,0.00,LWC V2.10 B1702,2013-01-25 12:02:00,
2013-01-25 07:07:00,12.7,-2.0,30.28,WNW,286,2.0,6.0,51,0.00,,,0.00,LWC V2.10 B1702,2013-01-25 12:07:00,
2013-01-25 07:12:00,12.7,-1.2,30.28,NW,309,0.0,3.0,53,0.00,,,0.00,LWC V2.10 B1702,2013-01-25 12:12:00,
2013-01-25 07:17:00,12.6,-2.1,30.27,NNW,341,6.0,11.0,51,0.00,,,0.00,LWC V2.10 B1702,2013-01-25 12:17:00,
2013-01-25 07:22:00,12.6,-2.1,30.28,North,0,3.0,5.0,51,0.00,,,0.00,LWC V2.10 B1702,2013-01-25 12:22:00,
2013-01-25 07:27:00,12.6,-1.2,30.28,WNW,293,4.0,9.0,53,0.00,,,0.00,LWC V2.10 B1702,2013-01-25 12:27:00,
2013-01-25 07:32:00,12.7,-1.2,30.28,NW,315,7.0,8.0,53,0.00,,,0.00,LWC V2.10 B1702,2013-01-25 12:32:00,
2013-01-25 07:37:00,12.7,-1.2,30.27,NW,320,2.0,6.0,53,0.00,,,0.00,LWC V2.10 B1702,2013-01-25 12:37:00,
2013-01-25 07:42:00,12.8,-1.5,30.27,NNW,327,0.0,5.0,52,0.00,,,0.00,LWC V2.10 B1702,2013-01-25 12:42:00,
2013-01-25 07:47:00,12.8,-0.7,30.28,NNW,347,6.0,7.0,54,0.00,,,0.00,LWC V2.10 B1702,2013-01-25 12:47:00,
2013-01-25 07:52:00,12.9,-1.0,30.28,NW,326,2.0,7.0,53,0.00,,,0.00,LWC V2.10 B1702,2013-01-25 12:52:00,
2013-01-25 07:57:00,13.0,-0.9,30.28,NNW,328,1.0,9.0,53,0.00,,,0.00,LWC V2.10 B1702,2013-01-25 12:57:00,
2013-01-25 08:02:00,13.0,-1.3,30.29,NW,319,5.0,7.0,52,0.00,,,0.00,LWC V2.10 B1702,2013-01-25 13:02:00,
2013-01-25 08:07:00,13.1,-1.2,30.28,NW,306,3.0,8.0,52,0.00,,,0.00,LWC V2.10 B1702,2013-01-25 13:07:00,
2013-01-25 08:12:00,13.4,-0.9,30.28,NNW,331,2.0,4.0,52,0.00,,,0.00,LWC V2.10 B1702,2013-01-25 13:12:00,
2013-01-25 08:17:00,13.6,-0.7,30.28,NW,304,3.0,8.0,52,0.00,,,0.00,LWC V2.10 B1702,2013-01-25 13:17:00,
2013-01-25 08:22:00,13.8,-1.4,30.29,NW,321,3.0,8.0,50,0.00,,,0.00,LWC V2.10 B1702,2013-01-25 13:22:00,
2013-01-25 08:27:00,14.1,-0.7,30.29,NNW,331,3.0,5.0,51,0.00,,,0.00,LWC V2.10 B1702,2013-01-25 13:27:00,
2013-01-25 08:32:00,14.3,0.3,30.30,WNW,293,6.0,7.0,53,0.00,,,0.00,LWC V2.10 B1702,2013-01-25 13:32:00,
2013-01-25 08:37:00,14.6,1.0,30.30,WNW,300,2.0,6.0,54,0.00,,,0.00,LWC V2.10 B1702,2013-01-25 13:37:00,
2013-01-25 08:42:00,14.9,0.5,30.30,NW,313,7.0,7.0,52,0.00,,,0.00,LWC V2.10 B1702,2013-01-25 13:42:00,
2013-01-25 08:47:00,15.1,0.3,30.30,NW,315,1.0,7.0,51,0.00,,,0.00,LWC V2.10 B1702,2013-01-25 13:47:00,
2013-01-25 08:52:00,15.3,0.9,30.30,NNW,327,1.0,4.0,52,0.00,,,0.00,LWC V2.10 B1702,2013-01-25 13:52:00,
2013-01-25 08:57:00,15.7,0.8,30.30,NW,309,0.0,6.0,51,0.00,,,0.00,LWC V2.10 B1702,2013-01-25 13:57:00,
2013-01-25 09:02:00,15.9,0.6,30.30,NNW,329,5.0,9.0,50,0.00,,,0.00,LWC V2.10 B1702,2013-01-25 14:02:00,
2013-01-25 09:07:00,16.0,-0.2,30.30,West,275,1.0,8.0,48,0.00,,,0.00,LWC V2.10 B1702,2013-01-25 14:07:00,
2013-01-25 09:12:00,16.2,0.4,30.29,WNW,302,4.0,8.0,49,0.00,,,0.00,LWC V2.10 B1702,2013-01-25 14:12:00,
2013-01-25 09:17:00,16.5,-0.2,30.29,NW,314,4.0,7.0,47,0.00,,,0.00,LWC V2.10 B1702,2013-01-25 14:17:00,
2013-01-25 09:22:00,16.8,0.6,30.29,NNW,329,3.0,8.0,48,0.00,,,0.00,LWC V2.10 B1702,2013-01-25 14:22:00,
2013-01-25 09:27:00,17.1,-0.1,30.29,North,9,4.0,6.0,46,0.00,,,0.00,LWC V2.10 B1702,2013-01-25 14:27:00,
2013-01-25 09:32:00,17.5,-0.2,30.29,NW,323,4.0,9.0,45,0.00,,,0.00,LWC V2.10 B1702,2013-01-25 14:32:00,
2013-01-25 09:37:00,17.6,-0.1,30.29,NW,304,4.0,5.0,45,0.00,,,0.00,LWC V2.10 B1702,2013-01-25 14:37:00,
2013-01-25 09:42:00,17.9,-0.3,30.29,WNW,287,9.0,12.0,44,0.00,,,0.00,LWC V2.10 B1702,2013-01-25 14:42:00,
2013-01-25 09:47:00,18.1,-0.1,30.29,NW,323,1.0,8.0,44,0.00,,,0.00,LWC V2.10 B1702,2013-01-25 14:47:00,
2013-01-25 09:52:00,18.4,0.2,30.29,West,266,4.0,9.0,44,0.00,,,0.00,LWC V2.10 B1702,2013-01-25 14:52:00,
2013-01-25 09:57:00,18.6,-0.1,30.29,NNW,343,4.0,5.0,43,0.00,,,0.00,LWC V2.10 B1702,2013-01-25 14:57:00,
2013-01-25 10:02:00,18.8,-0.4,30.29,NNW,333,6.0,8.0,42,0.00,,,0.00,LWC V2.10 B1702,2013-01-25 15:02:00,
2013-01-25 10:07:00,19.1,-0.7,30.28,WNW,291,0.0,6.0,41,0.00,,,0.00,LWC V2.10 B1702,2013-01-25 15:07:00,
2013-01-25 10:12:00,19.3,0.0,30.28,WNW,301,3.0,7.0,42,0.00,,,0.00,LWC V2.10 B1702,2013-01-25 15:12:00,
2013-01-25 10:17:00,19.4,0.6,30.28,NW,325,2.0,6.0,43,0.00,,,0.00,LWC V2.10 B1702,2013-01-25 15:17:00,
2013-01-25 10:22:00,19.6,-0.2,30.28,WNW,303,3.0,7.0,41,0.00,,,0.00,LWC V2.10 B1702,2013-01-25 15:22:00,
2013-01-25 10:27:00,19.9,0.0,30.28,NNW,338,3.0,7.0,41,0.00,,,0.00,LWC V2.10 B1702,2013-01-25 15:27:00,
2013-01-25 10:32:00,20.0,0.6,30.28,NNW,332,3.0,6.0,42,0.00,,,0.00,LWC V2.10 B1702,2013-01-25 15:32:00,
2013-01-25 10:37:00,20.1,-0.3,30.28,NW,319,2.0,5.0,40,0.00,,,0.00,LWC V2.10 B1702,2013-01-25 15:37:00,
2013-01-25 10:42:00,20.1,0.2,30.28,NW,326,7.0,7.0,41,0.00,,,0.00,LWC V2.10 B1702,2013-01-25 15:42:00,
2013-01-25 10:47:00,20.4,0.0,30.27,NW,313,6.0,7.0,40,0.00,,,0.00,LWC V2.10 B1702,2013-01-25 15:47:00,
2013-01-25 10:52:00,20.6,0.1,30.27,NW,317,1.0,4.0,40,0.00,,,0.00,LWC V2.10 B1702,2013-01-25 15:52:00,
2013-01-25 10:57:00,20.7,0.2,30.27,NNW,333,2.0,8.0,40,0.00,,,0.00,LWC V2.10 B1702,2013-01-25 15:57:00,
2013-01-25 11:02:00,20.9,0.4,30.26,WNW,302,2.0,6.0,40,0.00,,,0.00,LWC V2.10 B1702,2013-01-25 16:02:00,
2013-01-25 11:07:00,21.2,0.7,30.26,North,355,4.0,6.0,40,0.00,,,0.00,LWC V2.10 B1702,2013-01-25 16:07:00,
2013-01-25 11:12:00,21.6,1.1,30.25,NNW,333,2.0,4.0,40,0.00,,,0.00,LWC V2.10 B1702,2013-01-25 16:12:00,
2013-01-25 11:17:00,21.8,0.7,30.25,NW,317,0.0,6.0,39,0.00,,,0.00,LWC V2.10 B1702,2013-01-25 16:17:00,
2013-01-25 11:22:00,21.9,0.2,30.25,North,355,4.0,4.0,38,0.00,,,0.00,LWC V2.10 B1702,2013-01-25 16:22:00,
2013-01-25 11:27:00,22.4,1.2,30.25,NNW,329,4.0,7.0,39,0.00,,,0.00,LWC V2.10 B1702,2013-01-25 16:27:00,
2013-01-25 11:32:00,22.6,1.4,30.25,WNW,286,1.0,4.0,39,0.00,,,0.00,LWC V2.10 B1702,2013-01-25 16:32:00,
2013-01-25 11:37:00,22.9,1.1,30.25,NNW,327,0.0,3.0,38,0.00,,,0.00,LWC V2.10 B1702,2013-01-25 16:37:00,
2013-01-25 11:42:00,23.1,2.4,30.24,North,355,1.0,3.0,40,0.00,,,0.00,LWC V2.10 B1702,2013-01-25 16:42:00,
2013-01-25 11:47:00,23.4,2.1,30.24,NW,313,3.0,4.0,39,0.00,,,0.00,LWC V2.10 B1702,2013-01-25 16:47:00,
2013-01-25 11:52:00,23.3,0.9,30.24,North,355,4.0,8.0,37,0.00,,,0.00,LWC V2.10 B1702,2013-01-25 16:52:00,
2013-01-25 11:57:00,23.4,1.6,30.24,NNW,331,6.0,6.0,38,0.00,,,0.00,LWC V2.10 B1702,2013-01-25 16:57:00,
2013-01-25 12:02:00,23.5,1.7,30.24,WNW,284,3.0,6.0,38,0.00,,,0.00,LWC V2.10 B1702,2013-01-25 17:02:00,
2013-01-25 12:07:00,23.8,1.9,30.24,NW,318,1.0,2.0,38,0.00,,,0.00,LWC V2.10 B1702,2013-01-25 17:07:00,
2013-01-25 12:12:00,23.8,0.8,30.23,NW,316,3.0,6.0,36,0.00,,,0.00,LWC V2.10 B1702,2013-01-25 17:12:00,
2013-01-25 12:17:00,23.9,2.0,30.23,West,277,0.0,5.0,38,0.00,,,0.00,LWC V2.10 B1702,2013-01-25 17:17:00,
2013-01-25 12:22:00,24.3,1.2,30.23,NNW,338,4.0,5.0,36,0.00,,,0.00,LWC V2.10 B1702,2013-01-25 17:22:00,
2013-01-25 12:27:00,24.4,1.3,30.23,West,261,2.0,5.0,36,0.00,,,0.00,LWC V2.10 B1702,2013-01-25 17:27:00,
2013-01-25 12:32:00,24.5,2.0,30.23,NW,305,4.0,5.0,37,0.00,,,0.00,LWC V2.10 B1702,2013-01-25 17:32:00,
2013-01-25 12:37:00,24.7,2.2,30.22,West,277,2.0,5.0,37,0.00,,,0.00,LWC V2.10 B1702,2013-01-25 17:37:00,
2013-01-25 12:42:00,24.9,2.9,30.22,WSW,257,0.0,3.0,38,0.00,,,0.00,LWC V2.10 B1702,2013-01-25 17:42:00,
2013-01-25 12:47:00,25.1,2.5,30.21,WSW,248,2.0,9.0,37,0.00,,,0.00,LWC V2.10 B1702,2013-01-25 17:47:00,
2013-01-25 12:52:00,25.1,3.1,30.21,West,261,0.0,4.0,38,0.00,,,0.00,LWC V2.10 B1702,2013-01-25 17:52:00,
2013-01-25 12:57:00,25.0,4.1,30.21,West,280,4.0,5.0,40,0.00,,,0.00,LWC V2.10 B1702,2013-01-25 17:57:00,
2013-01-25 13:02:00,25.0,4.7,30.20,WNW,286,3.0,3.0,41,0.00,,,0.00,LWC V2.10 B1702,2013-01-25 18:02:00,
2013-01-25 13:07:00,25.0,3.6,30.20,NW,313,5.0,5.0,39,0.00,,,0.00,LWC V2.10 B1702,2013-01-25 18:07:00,
2013-01-25 13:12:00,25.0,4.7,30.19,WSW,254,2.0,3.0,41,0.00,,,0.00,LWC V2.10 B1702,2013-01-25 18:12:00,
2013-01-25 13:17:00,25.2,3.2,30.20,WNW,298,4.0,4.0,38,0.00,,,0.00,LWC V2.10 B1702,2013-01-25 18:17:00,
2013-01-25 13:22:00,25.3,4.4,30.19,SW,228,0.0,3.0,40,0.00,,,0.00,LWC V2.10 B1702,2013-01-25 18:22:00,
2013-01-25 13:27:00,25.6,4.1,30.19,NW,311,5.0,8.0,39,0.00,,,0.00,LWC V2.10 B1702,2013-01-25 18:27:00,
2013-01-25 13:32:00,25.8,4.3,30.19,NW,317,3.0,4.0,39,0.00,,,0.00,LWC V2.10 B1702,2013-01-25 18:32:00,
2013-01-25 13:37:00,25.9,4.4,30.18,SW,227,2.0,6.0,39,0.00,,,0.00,LWC V2.10 B1702,2013-01-25 18:37:00,
2013-01-25 13:42:00,25.9,4.4,30.18,NW,326,5.0,7.0,39,0.00,,,0.00,LWC V2.10 B1702,2013-01-25 18:42:00,
2013-01-25 13:47:00,26.0,4.5,30.18,West,273,0.0,1.0,39,0.00,,,0.00,LWC V2.10 B1702,2013-01-25 18:47:00,
2013-01-25 13:52:00,26.0,4.5,30.18,NNW,329,0.0,4.0,39,0.00,,,0.00,LWC V2.10 B1702,2013-01-25 18:52:00,
2013-01-25 13:57:00,26.0,4.5,30.18,SW,229,3.0,3.0,39,0.00,,,0.00,LWC V2.10 B1702,2013-01-25 18:57:00,
2013-01-25 14:02:00,25.9,2.7,30.17,NW,309,3.0,5.0,36,0.00,,,0.00,LWC V2.10 B1702,2013-01-25 19:02:00,
2013-01-25 14:07:00,25.6,3.0,30.17,West,269,0.0,3.0,37,0.00,,,0.00,LWC V2.10 B1702,2013-01-25 19:07:00,
2013-01-25 14:12:00,25.6,3.0,30.17,WSW,257,3.0,3.0,37,0.00,,,0.00,LWC V2.10 B1702,2013-01-25 19:12:00,
2013-01-25 14:17:00,25.5,4.0,30.17,WNW,292,3.0,3.0,39,0.00,,,0.00,LWC V2.10 B1702,2013-01-25 19:17:00,
2013-01-25 14:22:00,25.4,4.5,30.17,West,276,3.0,5.0,40,0.00,,,0.00,LWC V2.10 B1702,2013-01-25 19:22:00,
2013-01-25 14:27:00,25.3,4.9,30.16,WNW,300,1.0,4.0,41,0.00,,,0.00,LWC V2.10 B1702,2013-01-25 19:27:00,
2013-01-25 14:32:00,25.2,4.8,30.17,West,276,4.0,4.0,41,0.00,,,0.00,LWC V2.10 B1702,2013-01-25 19:32:00,
2013-01-25 14:37:00,25.2,5.9,30.16,WNW,282,4.0,4.0,43,0.00,,,0.00,LWC V2.10 B1702,2013-01-25 19:37:00,
2013-01-25 14:42:00,25.2,4.3,30.16,West,263,1.0,2.0,40,0.00,,,0.00,LWC V2.10 B1702,2013-01-25 19:42:00,
2013-01-25 14:47:00,25.2,3.8,30.16,West,261,1.0,3.0,39,0.00,,,0.00,LWC V2.10 B1702,2013-01-25 19:47:00,
2013-01-25 14:52:00,25.1,3.7,30.16,WNW,290,0.0,4.0,39,0.00,,,0.00,LWC V2.10 B1702,2013-01-25 19:52:00,
2013-01-25 14:57:00,25.1,3.7,30.15,WNW,284,4.0,4.0,39,0.00,,,0.00,LWC V2.10 B1702,2013-01-25 19:57:00,
2013-01-25 15:02:00,25.1,4.2,30.15,West,267,2.0,2.0,40,0.00,,,0.00,LWC V2.10 B1702,2013-01-25 20:02:00,
2013-01-25 15:07:00,25.1,4.8,30.16,West,271,1.0,5.0,41,0.00,,,0.00,LWC V2.10 B1702,2013-01-25 20:07:00,
2013-01-25 15:12:00,25.1,3.7,30.16,WNW,292,0.0,5.0,39,0.00,,,0.00,LWC V2.10 B1702,2013-01-25 20:12:00,
2013-01-25 15:17:00,25.2,5.9,30.15,NNW,344,1.0,1.0,43,0.00,,,0.00,LWC V2.10 B1702,2013-01-25 20:17:00,
2013-01-25 15:22:00,25.3,3.8,30.15,WNW,302,0.0,5.0,39,0.00,,,0.00,LWC V2.10 B1702,2013-01-25 20:22:00,
2013-01-25 15:27:00,25.3,3.3,30.16,WNW,292,0.0,1.0,38,0.00,,,0.00,LWC V2.10 B1702,2013-01-25 20:27:00,
2013-01-25 15:32:00,25.3,3.3,30.16,WNW,300,1.0,2.0,38,0.00,,,0.00,LWC V2.10 B1702,2013-01-25 20:32:00,
2013-01-25 15:37:00,25.2,3.2,30.16,WNW,287,3.0,3.0,38,0.00,,,0.00,LWC V2.10 B1702,2013-01-25 20:37:00,
2013-01-25 15:42:00,25.2,3.8,30.16,West,279,1.0,1.0,39,0.00,,,0.00,LWC V2.10 B1702,2013-01-25 20:42:00,
2013-01-25 15:47:00,25.2,4.8,30.15,WNW,291,1.0,1.0,41,0.00,,,0.00,LWC V2.10 B1702,2013-01-25 20:47:00,
2013-01-25 15:52:00,25.1,2.5,30.15,WNW,292,2.0,3.0,37,0.00,,,0.00,LWC V2.10 B1702,2013-01-25 20:52:00,
2013-01-25 15:57:00,25.2,3.2,30.15,West,265,0.0,2.0,38,0.00,,,0.00,LWC V2.10 B1702,2013-01-25 20:57:00,
2013-01-25 16:02:00,25.2,4.3,30.15,West,273,0.0,0.0,40,0.00,,,0.00,LWC V2.10 B1702,2013-01-25 21:02:00,
2013-01-25 16:07:00,25.1,5.3,30.15,WNW,291,0.0,3.0,42,0.00,,,0.00,LWC V2.10 B1702,2013-01-25 21:07:00,
2013-01-25 16:12:00,25.0,4.1,30.15,WNW,289,1.0,3.0,40,0.00,,,0.00,LWC V2.10 B1702,2013-01-25 21:12:00,
2013-01-25 16:17:00,25.0,4.7,30.15,WSW,251,1.0,2.0,41,0.00,,,0.00,LWC V2.10 B1702,2013-01-25 21:17:00,
2013-01-25 16:22:00,25.0,4.7,30.15,NW,323,1.0,3.0,41,0.00,,,0.00,LWC V2.10 B1702,2013-01-25 21:22:00,
2013-01-25 16:27:00,24.9,5.1,30.15,WNW,292,0.0,2.0,42,0.00,,,0.00,LWC V2.10 B1702,2013-01-25 21:27:00,
2013-01-25 16:32:00,24.9,5.1,30.15,West,273,2.0,4.0,42,0.00,,,0.00,LWC V2.10 B1702,2013-01-25 21:32:00,
2013-01-25 16:37:00,24.9,6.1,30.15,WNW,287,0.0,2.0,44,0.00,,,0.00,LWC V2.10 B1702,2013-01-25 21:37:00,
2013-01-25 16:42:00,24.8,6.5,30.15,WSW,255,3.0,4.0,45,0.00,,,0.00,LWC V2.10 B1702,2013-01-25 21:42:00,
2013-01-25 16:47:00,24.8,5.5,30.15,West,269,0.0,1.0,43,0.00,,,0.00,LWC V2.10 B1702,2013-01-25 21:47:00,
2013-01-25 16:52:00,24.8,5.5,30.15,NW,317,0.0,3.0,43,0.00,,,0.00,LWC V2.10 B1702,2013-01-25 21:52:00,
2013-01-25 16:57:00,24.8,5.5,30.14,NW,312,1.0,2.0,43,0.00,,,0.00,LWC V2.10 B1702,2013-01-25 21:57:00,
2013-01-25 17:02:00,24.9,5.6,30.15,WNW,294,1.0,2.0,43,0.00,,,0.00,LWC V2.10 B1702,2013-01-25 22:02:00,
2013-01-25 17:07:00,24.9,5.6,30.15,NW,305,0.0,5.0,43,0.00,,,0.00,LWC V2.10 B1702,2013-01-25 22:07:00,
2013-01-25 17:12:00,24.9,6.1,30.15,WNW,296,4.0,4.0,44,0.00,,,0.00,LWC V2.10 B1702,2013-01-25 22:12:00,
2013-01-25 17:17:00,24.9,5.6,30.14,WNW,300,0.0,3.0,43,0.00,,,0.00,LWC V2.10 B1702,2013-01-25 22:17:00,
2013-01-25 17:22:00,24.9,6.6,30.14,West,278,0.0,5.0,45,0.00,,,0.00,LWC V2.10 B1702,2013-01-25 22:22:00,
2013-01-25 17:27:00,24.8,6.0,30.14,NNW,330,2.0,2.0,44,0.00,,,0.00,LWC V2.10 B1702,2013-01-25 22:27:00,
2013-01-25 17:32:00,24.8,6.0,30.14,North,355,3.0,5.0,44,0.00,,,0.00,LWC V2.10 B1702,2013-01-25 22:32:00,
2013-01-25 17:37:00,24.8,5.5,30.14,West,279,2.0,6.0,43,0.00,,,0.00,LWC V2.10 B1702,2013-01-25 22:37:00,
2013-01-25 17:42:00,24.8,5.5,30.13,NNW,336,1.0,3.0,43,0.00,,,0.00,LWC V2.10 B1702,2013-01-25 22:42:00,
2013-01-25 17:47:00,24.7,7.8,30.14,WNW,288,3.0,3.0,48,0.00,,,0.00,LWC V2.10 B1702,2013-01-25 22:47:00,
2013-01-25 17:52:00,24.7,6.4,30.14,NW,317,0.0,2.0,45,0.00,,,0.00,LWC V2.10 B1702,2013-01-25 22:52:00,
2013-01-25 17:57:00,24.7,6.9,30.13,WNW,292,2.0,3.0,46,0.00,,,0.00,LWC V2.10 B1702,2013-01-25 22:57:00,
2013-01-25 18:02:00,24.7,6.4,30.13,NW,311,1.0,2.0,45,0.00,,,0.00,LWC V2.10 B1702,2013-01-25 23:02:00,
2013-01-25 18:07:00,24.7,6.9,30.13,WNW,301,1.0,2.0,46,0.00,,,0.00,LWC V2.10 B1702,2013-01-25 23:07:00,
2013-01-25 18:12:00,24.7,6.4,30.13,NW,315,2.0,3.0,45,0.00,,,0.00,LWC V2.10 B1702,2013-01-25 23:12:00,
2013-01-25 18:17:00,24.7,6.9,30.12,NW,323,0.0,1.0,46,0.00,,,0.00,LWC V2.10 B1702,2013-01-25 23:17:00,
2013-01-25 18:22:00,24.7,5.9,30.12,West,279,0.0,3.0,44,0.00,,,0.00,LWC V2.10 B1702,2013-01-25 23:22:00,
2013-01-25 18:27:00,24.7,6.9,30.12,NNW,329,0.0,2.0,46,0.00,,,0.00,LWC V2.10 B1702,2013-01-25 23:27:00,
2013-01-25 18:32:00,24.8,7.0,30.12,NW,319,0.0,2.0,46,0.00,,,0.00,LWC V2.10 B1702,2013-01-25 23:32:00,
2013-01-25 18:37:00,24.7,7.4,30.12,WNW,294,2.0,3.0,47,0.00,,,0.00,LWC V2.10 B1702,2013-01-25 23:37:00,
2013-01-25 18:42:00,24.8,7.5,30.13,WNW,294,5.0,5.0,47,0.00,,,0.00,LWC V2.10 B1702,2013-01-25 23:42:00,
2013-01-25 18:47:00,24.9,6.6,30.13,WNW,288,2.0,4.0,45,0.00,,,0.00,LWC V2.10 B1702,2013-01-25 23:47:00,
2013-01-25 18:52:00,25.0,7.6,30.12,WNW,284,0.0,2.0,47,0.00,,,0.00,LWC V2.10 B1702,2013-01-25 23:52:00,
2013-01-25 18:57:00,25.0,8.1,30.13,WNW,303,2.0,3.0,48,0.00,,,0.00,LWC V2.10 B1702,2013-01-25 23:57:00,
2013-01-25 19:02:00,25.0,8.1,30.13,West,265,0.0,4.0,48,0.00,,,0.00,LWC V2.10 B1702,2013-01-26 00:02:00,
2013-01-25 19:07:00,25.0,8.6,30.13,WNW,298,0.0,2.0,49,0.00,,,0.00,LWC V2.10 B1702,2013-01-26 00:07:00,
2013-01-25 19:12:00,25.0,7.6,30.13,West,280,0.0,1.0,47,0.00,,,0.00,LWC V2.10 B1702,2013-01-26 00:12:00,
2013-01-25 19:17:00,25.1,7.3,30.12,NW,309,2.0,3.0,46,0.00,,,0.00,LWC V2.10 B1702,2013-01-26 00:17:00,
2013-01-25 19:22:00,25.1,7.3,30.13,West,281,1.0,2.0,46,0.00,,,0.00,LWC V2.10 B1702,2013-01-26 00:22:00,
2013-01-25 19:27:00,25.1,7.7,30.12,WNW,302,0.0,1.0,47,0.00,,,0.00,LWC V2.10 B1702,2013-01-26 00:27:00,
2013-01-25 19:32:00,25.1,6.8,30.12,West,265,0.0,2.0,45,0.00,,,0.00,LWC V2.10 B1702,2013-01-26 00:32:00,
2013-01-25 19:37:00,25.1,7.3,30.12,WNW,289,1.0,2.0,46,0.00,,,0.00,LWC V2.10 B1702,2013-01-26 00:37:00,
2013-01-25 19:42:00,25.0,7.2,30.12,WNW,296,2.0,3.0,46,0.00,,,0.00,LWC V2.10 B1702,2013-01-26 00:42:00,
2013-01-25 19:47:00,25.0,7.2,30.12,WNW,292,0.0,1.0,46,0.00,,,0.00,LWC V2.10 B1702,2013-01-26 00:47:00,
2013-01-25 19:52:00,25.0,6.2,30.11,NW,304,0.0,2.0,44,0.00,,,0.00,LWC V2.10 B1702,2013-01-26 00:52:00,
2013-01-25 19:57:00,25.0,7.2,30.11,West,271,0.0,1.0,46,0.00,,,0.00,LWC V2.10 B1702,2013-01-26 00:57:00,
2013-01-25 20:02:00,24.9,7.6,30.11,WNW,295,0.0,3.0,47,0.00,,,0.00,LWC V2.10 B1702,2013-01-26 01:02:00,
2013-01-25 20:07:00,24.9,7.6,30.11,WNW,302,0.0,0.0,47,0.00,,,0.00,LWC V2.10 B1702,2013-01-26 01:07:00,
2013-01-25 20:12:00,24.9,7.6,30.10,WNW,302,0.0,0.0,47,0.00,,,0.00,LWC V2.10 B1702,2013-01-26 01:12:00,
2013-01-25 20:17:00,24.9,9.4,30.09,WNW,302,0.0,0.0,51,0.00,,,0.00,LWC V2.10 B1702,2013-01-26 01:17:00,
2013-01-25 20:22:00,24.8,9.7,30.09,WNW,302,0.0,0.0,52,0.00,,,0.00,LWC V2.10 B1702,2013-01-26 01:22:00,
2013-01-25 20:27:00,24.8,8.4,30.09,NW,309,0.0,1.0,49,0.00,,,0.00,LWC V2.10 B1702,2013-01-26 01:27:00,
2013-01-25 20:32:00,24.7,8.7,30.08,NW,309,0.0,0.0,50,0.00,,,0.00,LWC V2.10 B1702,2013-01-26 01:32:00,
2013-01-25 20:37:00,24.7,9.2,30.08,NW,309,0.0,0.0,51,0.00,,,0.00,LWC V2.10 B1702,2013-01-26 01:37:00,
2013-01-25 20:42:00,24.7,8.7,30.08,NW,309,0.0,0.0,50,0.00,,,0.00,LWC V2.10 B1702,2013-01-26 01:42:00,
2013-01-25 20:47:00,24.6,8.6,30.08,NW,312,1.0,1.0,50,0.00,,,0.00,LWC V2.10 B1702,2013-01-26 01:47:00,
2013-01-25 20:52:00,24.7,8.7,30.08,NW,317,0.0,1.0,50,0.00,,,0.00,LWC V2.10 B1702,2013-01-26 01:52:00,
2013-01-25 20:59:00,24.7,10.0,30.07,NNW,328,0.0,2.0,53,0.00,,,0.00,LWC V2.10 B1702,2013-01-26 01:59:00,
2013-01-25 21:04:00,24.7,9.2,30.07,NNW,328,0.0,0.0,51,0.00,,,0.00,LWC V2.10 B1702,2013-01-26 02:04:00,
2013-01-25 21:09:00,24.7,9.6,30.07,NNW,328,0.0,0.0,52,0.00,,,0.00,LWC V2.10 B1702,2013-01-26 02:09:00,
2013-01-25 21:14:00,24.6,11.6,30.07,NNW,328,0.0,0.0,57,0.00,,,0.00,LWC V2.10 B1702,2013-01-26 02:14:00,
2013-01-25 21:19:00,24.5,10.3,30.08,NNW,328,0.0,0.0,54,0.00,,,0.00,LWC V2.10 B1702,2013-01-26 02:19:00,
2013-01-25 21:24:00,24.5,10.7,30.08,NNW,328,0.0,0.0,55,0.00,,,0.00,LWC V2.10 B1702,2013-01-26 02:24:00,
2013-01-25 21:29:00,24.5,9.0,30.08,NNW,328,0.0,0.0,51,0.00,,,0.00,LWC V2.10 B1702,2013-01-26 02:29:00,
2013-01-25 21:34:00,24.5,9.8,30.08,NNW,328,0.0,0.0,53,0.00,,,0.00,LWC V2.10 B1702,2013-01-26 02:34:00,
2013-01-25 21:39:00,24.5,9.0,30.08,NNW,328,0.0,1.0,51,0.00,,,0.00,LWC V2.10 B1702,2013-01-26 02:39:00,
2013-01-25 21:44:00,24.6,9.5,30.08,NNW,328,0.0,0.0,52,0.00,,,0.00,LWC V2.10 B1702,2013-01-26 02:44:00,
2013-01-25 21:49:00,24.6,9.1,30.08,NW,307,1.0,2.0,51,0.00,,,0.00,LWC V2.10 B1702,2013-01-26 02:49:00,
2013-01-25 21:54:00,24.7,7.4,30.08,North,9,2.0,2.0,47,0.00,,,0.00,LWC V2.10 B1702,2013-01-26 02:54:00,
2013-01-25 21:59:00,24.7,10.5,30.07,NNW,343,2.0,5.0,54,0.00,,,0.00,LWC V2.10 B1702,2013-01-26 02:59:00,
2013-01-25 22:04:00,24.5,11.9,30.07,North,350,0.0,3.0,58,0.00,,,0.00,LWC V2.10 B1702,2013-01-26 03:04:00,
2013-01-25 22:09:00,24.3,13.2,30.07,NNW,339,2.0,2.0,62,0.00,,,0.00,LWC V2.10 B1702,2013-01-26 03:09:00,
2013-01-25 22:14:00,24.0,12.9,30.06,North,350,2.0,4.0,62,0.00,,,0.00,LWC V2.10 B1702,2013-01-26 03:14:00,
2013-01-25 22:19:00,23.6,13.2,30.06,NW,319,0.0,2.0,64,0.00,,,0.00,LWC V2.10 B1702,2013-01-26 03:19:00,
2013-01-25 22:24:00,23.4,14.4,30.06,North,350,0.0,2.0,68,0.00,,,0.00,LWC V2.10 B1702,2013-01-26 03:24:00,
2013-01-25 22:29:00,23.1,14.8,30.06,NW,313,1.0,2.0,70,0.00,,,0.00,LWC V2.10 B1702,2013-01-26 03:29:00,
2013-01-25 22:34:00,22.9,15.2,30.06,NNW,327,0.0,1.0,72,0.00,,,0.00,LWC V2.10 B1702,2013-01-26 03:34:00,
2013-01-25 22:39:00,22.7,15.4,30.06,NNW,327,1.0,2.0,73,0.00,,,0.00,LWC V2.10 B1702,2013-01-26 03:39:00,
2013-01-25 22:44:00,22.6,15.6,30.05,NNW,344,0.0,2.0,74,0.00,,,0.00,LWC V2.10 B1702,2013-01-26 03:44:00,
2013-01-25 22:49:00,22.4,15.7,30.05,North,11,0.0,0.0,75,0.00,,,0.00,LWC V2.10 B1702,2013-01-26 03:49:00,
2013-01-25 22:54:00,22.2,15.8,30.05,NNW,334,0.0,3.0,76,0.00,,,0.00,LWC V2.10 B1702,2013-01-26 03:54:00,
2013-01-25 22:59:00,22.1,16.0,30.04,NW,323,0.0,4.0,77,0.00,,,0.00,LWC V2.10 B1702,2013-01-26 03:59:00,
2013-01-25 23:04:00,21.9,16.1,30.04,North,9,0.0,2.0,78,0.00,,,0.00,LWC V2.10 B1702,2013-01-26 04:04:00,
2013-01-25 23:09:00,21.8,16.3,30.04,NE,35,0.0,2.0,79,0.00,,,0.00,LWC V2.10 B1702,2013-01-26 04:09:00,
2013-01-25 23:14:00,21.7,16.5,30.04,North,0,0.0,0.0,80,0.00,,,0.00,LWC V2.10 B1702,2013-01-26 04:14:00,
2013-01-25 23:19:00,21.6,16.4,30.04,North,355,0.0,1.0,80,0.00,,,0.00,LWC V2.10 B1702,2013-01-26 04:19:00,
2013-01-25 23:24:00,21.6,16.4,30.04,North,9,0.0,0.0,80,0.00,,,0.00,LWC V2.10 B1702,2013-01-26 04:24:00,
2013-01-25 23:29:00,21.5,16.6,30.04,NNE,21,0.0,1.0,81,0.00,,,0.00,LWC V2.10 B1702,2013-01-26 04:29:00,
2013-01-25 23:34:00,21.4,16.5,30.04,NE,36,0.0,3.0,81,0.00,,,0.00,LWC V2.10 B1702,2013-01-26 04:34:00,
2013-01-25 23:39:00,21.4,16.5,30.03,North,0,4.0,6.0,81,0.00,,,0.00,LWC V2.10 B1702,2013-01-26 04:39:00,
2013-01-25 23:44:00,21.3,16.7,30.03,NE,38,0.0,5.0,82,0.00,,,0.00,LWC V2.10 B1702,2013-01-26 04:44:00,
2013-01-25 23:49:00,21.2,16.6,30.03,NNE,28,0.0,0.0,82,0.00,,,0.00,LWC V2.10 B1702,2013-01-26 04:49:00,
2013-01-25 23:54:00,21.2,16.6,30.03,NNE,12,0.0,2.0,82,0.00,,,0.00,LWC V2.10 B1702,2013-01-26 04:54:00,
2013-01-25 23:59:00,21.1,16.5,30.03,NNE,15,0.0,1.0,82,0.00,,,0.00,LWC V2.10 B1702,2013-01-26 04:59:00,